createdAt,value
2022-12-11T00:03:38.240Z,67.06
2022-12-11T00:08:40.251Z,66.24
2022-12-11T00:13:42.195Z,66.55
2022-12-11T00:18:44.275Z,66.93
2022-12-11T00:23:45.821Z,66.31
2022-12-11T00:28:47.944Z,67.04
2022-12-11T00:33:50.018Z,66.90
2022-12-11T00:38:52.813Z,66.84
2022-12-11T00:43:54.194Z,66.56
2022-12-11T00:48:55.602Z,66.05
2022-12-11T00:53:57.479Z,66.99
2022-12-11T00:58:58.885Z,66.43
2022-12-11T01:04:00.313Z,67.13
2022-12-11T01:09:20.142Z,66.88
2022-12-11T01:14:21.496Z,67.03
2022-12-11T01:19:25.731Z,67.15
2022-12-11T01:24:27.099Z,66.50
2022-12-11T01:29:28.468Z,66.91
2022-12-11T01:34:30.727Z,66.78
2022-12-11T01:39:32.095Z,66.84
2022-12-11T01:44:33.826Z,66.43
2022-12-11T01:49:36.545Z,66.12
2022-12-11T01:54:38.340Z,66.93
2022-12-11T01:59:43.072Z,66.94
2022-12-11T02:04:46.205Z,66.77
2022-12-11T02:09:48.454Z,66.62
2022-12-11T02:15:16.786Z,67.11
2022-12-11T02:20:27.705Z,66.56
2022-12-11T02:25:56.172Z,66.55
2022-12-11T02:31:14.524Z,67.44
2022-12-11T02:36:18.966Z,67.55
2022-12-11T02:41:23.177Z,67.44
2022-12-11T02:46:25.577Z,67.89
2022-12-11T02:51:32.522Z,67.93
2022-12-11T02:56:40.323Z,67.47
2022-12-11T03:01:42.113Z,67.68
2022-12-11T03:06:49.456Z,67.84
2022-12-11T03:11:51.965Z,67.97
2022-12-11T03:17:04.940Z,67.89
2022-12-11T03:22:15.584Z,67.63
2022-12-11T03:27:36.295Z,67.28
2022-12-11T03:32:49.232Z,68.43
2022-12-11T03:37:53.160Z,67.37
2022-12-11T03:42:57.326Z,67.96
2022-12-11T03:48:01.470Z,67.82
2022-12-11T03:53:04.645Z,67.40
2022-12-11T03:58:06.408Z,68.16
2022-12-11T04:03:14.257Z,67.69
2022-12-11T04:08:17.661Z,68.11
2022-12-11T04:13:19.087Z,68.22
2022-12-11T04:18:38.968Z,67.48
2022-12-11T04:24:12.749Z,67.53
2022-12-11T04:29:15.130Z,68.02
2022-12-11T04:34:16.943Z,68.09
2022-12-11T04:39:18.285Z,67.48
2022-12-11T04:44:19.638Z,68.51
2022-12-11T04:49:20.978Z,68.32
2022-12-11T04:54:22.371Z,67.75
2022-12-11T04:59:23.737Z,68.68
2022-12-11T05:04:25.294Z,67.65
2022-12-11T05:09:27.515Z,67.99
2022-12-11T05:14:31.874Z,68.24
2022-12-11T05:19:33.390Z,67.87
2022-12-11T05:24:34.733Z,68.69
2022-12-11T05:29:36.345Z,67.86
2022-12-11T05:34:37.826Z,68.32
2022-12-11T05:39:39.245Z,68.29
2022-12-11T05:44:40.585Z,68.43
2022-12-11T05:49:41.985Z,68.74
2022-12-11T05:54:43.446Z,68.88
2022-12-11T05:59:45.215Z,68.38
2022-12-11T06:04:46.587Z,68.49
2022-12-11T06:09:47.934Z,68.46
2022-12-11T06:14:49.278Z,68.61
2022-12-11T06:19:50.640Z,68.25
2022-12-11T06:24:52.033Z,68.12
2022-12-11T06:29:53.382Z,68.48
2022-12-11T06:34:54.804Z,68.19
2022-12-11T06:39:56.147Z,68.94
2022-12-11T06:44:59.664Z,68.64
2022-12-11T06:50:02.253Z,68.27
2022-12-11T06:55:03.917Z,68.10
2022-12-11T07:00:06.001Z,68.60
2022-12-11T07:05:07.585Z,68.28
2022-12-11T07:10:09.814Z,67.90
2022-12-11T07:15:11.451Z,68.71
2022-12-11T07:20:13.059Z,67.79
2022-12-11T07:25:14.838Z,68.51
2022-12-11T07:30:16.314Z,68.25
2022-12-11T07:35:17.677Z,68.12
2022-12-11T07:40:19.049Z,67.78
2022-12-11T07:45:20.418Z,67.76
2022-12-11T07:50:22.383Z,67.93
2022-12-11T07:55:23.762Z,68.04
2022-12-11T08:00:25.138Z,67.77
2022-12-11T08:05:26.494Z,67.69
2022-12-11T08:10:27.849Z,67.45
2022-12-11T08:15:29.235Z,68.15
2022-12-11T08:20:31.051Z,68.28
2022-12-11T08:25:32.912Z,67.72
2022-12-11T08:30:34.362Z,67.74
2022-12-11T08:35:39.698Z,67.88
2022-12-11T08:40:41.315Z,67.68
2022-12-11T08:45:42.786Z,67.63
2022-12-11T08:50:44.227Z,67.66
2022-12-11T08:55:45.587Z,67.43
2022-12-11T09:00:47.008Z,68.00
2022-12-11T09:05:48.342Z,68.20
2022-12-11T09:10:49.753Z,67.49
2022-12-11T09:15:51.144Z,67.85
2022-12-11T09:21:03.886Z,67.80
2022-12-11T09:26:06.770Z,67.56
2022-12-11T09:31:10.401Z,67.71
2022-12-11T09:36:12.592Z,67.89
2022-12-11T09:41:22.891Z,67.40
2022-12-11T09:46:25.141Z,67.62
2022-12-11T09:51:36.223Z,67.32
2022-12-11T09:57:16.845Z,67.31
2022-12-11T10:02:34.218Z,67.52
2022-12-11T10:07:49.355Z,67.09
2022-12-11T10:12:59.525Z,67.47
2022-12-11T10:18:05.342Z,67.21
2022-12-11T10:23:09.654Z,67.00
2022-12-11T10:28:16.622Z,66.84
2022-12-11T10:33:23.425Z,67.08
2022-12-11T10:38:29.072Z,67.12
2022-12-11T10:43:39.608Z,66.83
2022-12-11T10:48:59.381Z,66.70
2022-12-11T10:54:32.266Z,67.11
2022-12-11T10:59:49.213Z,66.79
2022-12-11T11:04:51.240Z,66.99
2022-12-11T11:10:10.340Z,66.55
2022-12-11T11:15:19.416Z,66.83
2022-12-11T11:20:27.275Z,66.60
2022-12-11T11:25:32.629Z,66.72
2022-12-11T11:30:37.192Z,66.47
2022-12-11T11:35:40.179Z,66.66
2022-12-11T11:40:53.119Z,66.24
2022-12-11T11:46:04.335Z,66.16
2022-12-11T11:51:22.918Z,66.21
2022-12-11T11:56:28.805Z,66.15
2022-12-11T12:01:30.449Z,65.68
2022-12-11T12:07:07.096Z,65.87
2022-12-11T12:12:24.738Z,65.54
2022-12-11T12:22:52.009Z,65.51
2022-12-11T12:28:18.008Z,65.53
2022-12-11T12:33:33.084Z,65.19
2022-12-11T12:38:52.797Z,65.30
2022-12-11T12:44:13.886Z,65.13
2022-12-11T12:49:38.290Z,65.34
2022-12-11T12:54:42.439Z,65.39
2022-12-11T12:59:54.117Z,65.29
2022-12-11T13:05:22.563Z,65.31
2022-12-11T13:10:38.804Z,65.13
2022-12-11T13:15:45.003Z,65.26
2022-12-11T13:20:50.927Z,65.14
2022-12-11T13:25:55.686Z,65.35
2022-12-11T13:31:04.250Z,65.52
2022-12-11T13:36:33.832Z,65.18
2022-12-11T13:41:37.431Z,65.29
2022-12-11T13:46:39.542Z,64.77
2022-12-11T13:51:52.635Z,65.14
2022-12-11T13:57:07.621Z,64.51
2022-12-11T14:02:20.873Z,64.77
2022-12-11T14:07:30.450Z,65.44
2022-12-11T14:12:32.755Z,65.31
2022-12-11T14:17:36.181Z,64.97
2022-12-11T14:22:37.610Z,65.13
2022-12-11T14:27:48.758Z,65.20
2022-12-11T14:32:52.335Z,64.72
2022-12-11T14:37:54.587Z,64.59
2022-12-11T14:43:01.644Z,64.21
2022-12-11T14:48:16.322Z,63.89
2022-12-11T14:53:23.003Z,64.44
2022-12-11T14:58:26.669Z,64.27
2022-12-11T15:03:36.488Z,64.82
2022-12-11T15:08:38.315Z,64.53
2022-12-11T15:14:02.800Z,64.53
2022-12-11T15:19:04.317Z,64.60
2022-12-11T15:24:07.050Z,65.11
2022-12-11T15:29:31.979Z,64.96
2022-12-11T15:34:53.435Z,64.90
2022-12-11T15:39:56.477Z,64.83
2022-12-11T15:44:59.216Z,65.21
2022-12-11T15:50:16.631Z,65.86
2022-12-11T15:55:19.172Z,65.77
2022-12-11T16:00:22.172Z,65.76
2022-12-11T16:05:24.659Z,65.78
2022-12-11T16:10:27.010Z,65.58
2022-12-11T16:15:28.959Z,65.75
2022-12-11T16:20:31.429Z,65.22
2022-12-11T16:25:33.922Z,65.79
2022-12-11T16:30:37.088Z,65.75
2022-12-11T16:35:38.506Z,65.31
2022-12-11T16:40:41.321Z,65.67
2022-12-11T16:45:43.050Z,66.48
2022-12-11T16:50:44.400Z,66.34
2022-12-11T16:55:45.960Z,66.52
2022-12-11T17:00:48.167Z,66.60
2022-12-11T17:05:49.510Z,66.57
2022-12-11T17:10:52.108Z,67.06
2022-12-11T17:15:53.502Z,67.41
2022-12-11T17:20:55.101Z,67.24
2022-12-11T17:25:56.477Z,67.91
2022-12-11T17:30:58.515Z,67.92
2022-12-11T17:36:01.709Z,68.17
2022-12-11T17:41:15.504Z,67.86
2022-12-11T17:46:21.726Z,67.49
2022-12-11T17:51:24.487Z,67.05
2022-12-11T17:56:27.168Z,67.66
2022-12-11T18:01:28.583Z,68.40
2022-12-11T18:06:31.168Z,68.17
2022-12-11T18:11:33.068Z,68.64
2022-12-11T18:16:37.978Z,68.60
2022-12-11T18:21:42.732Z,68.41
2022-12-11T18:26:44.189Z,68.06
2022-12-11T18:31:45.603Z,68.49
2022-12-11T18:36:47.026Z,68.89
2022-12-11T18:42:03.583Z,68.51
2022-12-11T18:47:09.758Z,68.96
2022-12-11T18:52:11.179Z,69.61
2022-12-11T18:57:12.701Z,69.57
2022-12-11T19:02:14.212Z,69.70
2022-12-11T19:07:15.662Z,69.03
2022-12-11T19:12:17.064Z,69.26
2022-12-11T19:17:18.461Z,69.90
2022-12-11T19:22:20.369Z,69.55
2022-12-11T19:27:21.760Z,69.56
2022-12-11T19:32:23.195Z,69.96
2022-12-11T19:37:24.677Z,70.06
2022-12-11T19:42:26.644Z,69.76
2022-12-11T19:47:27.991Z,70.17
2022-12-11T19:52:29.422Z,70.27
2022-12-11T19:57:34.301Z,70.21
2022-12-11T20:02:35.721Z,70.72
2022-12-11T20:07:37.149Z,70.44
2022-12-11T20:12:38.673Z,70.10
2022-12-11T20:17:44.515Z,70.68
2022-12-11T20:22:46.003Z,69.82
2022-12-11T20:27:47.899Z,70.44
2022-12-11T20:32:52.838Z,70.33
2022-12-11T20:37:54.218Z,70.44
2022-12-11T20:42:55.568Z,70.46
2022-12-11T20:47:56.928Z,70.46
2022-12-11T20:52:58.638Z,69.69
2022-12-11T20:57:59.994Z,70.21
2022-12-11T21:03:01.372Z,69.96
2022-12-11T21:08:02.823Z,70.21
2022-12-11T21:13:04.211Z,70.46
2022-12-11T21:18:07.044Z,70.05
2022-12-11T21:23:08.440Z,70.02
2022-12-11T21:28:09.827Z,70.10
2022-12-11T21:33:11.523Z,70.13
2022-12-11T21:38:13.582Z,70.70
2022-12-11T21:43:15.167Z,70.11
2022-12-11T21:48:16.531Z,70.38
2022-12-11T21:53:17.938Z,70.70
2022-12-11T21:58:19.305Z,70.87
2022-12-11T22:03:20.646Z,70.80
2022-12-11T22:08:22.129Z,71.12
2022-12-11T22:13:23.701Z,71.22
2022-12-11T22:18:28.021Z,70.67
2022-12-11T22:23:29.597Z,70.58
2022-12-11T22:28:30.953Z,70.46
2022-12-11T22:33:32.304Z,71.09
2022-12-11T22:38:34.531Z,70.73
2022-12-11T22:43:35.863Z,71.15
2022-12-11T22:48:37.211Z,71.33
2022-12-11T22:53:38.986Z,70.76
2022-12-11T22:58:40.821Z,70.89
2022-12-11T23:03:42.301Z,71.53
2022-12-11T23:08:44.257Z,71.10
2022-12-11T23:13:45.766Z,71.42
2022-12-11T23:18:47.302Z,71.07
2022-12-11T23:23:49.221Z,71.69
2022-12-11T23:28:50.631Z,71.20
2022-12-11T23:33:52.545Z,71.72
2022-12-11T23:38:55.127Z,71.43
2022-12-11T23:43:56.642Z,71.11
2022-12-11T23:48:58.023Z,71.15
2022-12-11T23:53:59.452Z,71.60
2022-12-11T23:59:01.232Z,71.09
